Time;durP1;ratioP1;P1;durP2;ratioP2;P2;SDS_P1;SDS_P2;PMS_P1;PMS_P2;Temp;Humidity;BMP_temperature;BMP_pressure;BME280_temperature;BME280_humidity;BME280_pressure;Samples;Min_cycle;Max_cycle;Signal;HPM_P1;HPM_P2
2022/09/18 00:02:16;;;;;;;8.48;1.25;;;10.60;99.90;;;;;;4871840;29;20049;-60
2022/09/18 00:04:41;;;;;;;15.02;2.00;;;10.60;99.90;;;;;;4884486;29;20057;-60
2022/09/18 00:07:07;;;;;;;11.23;2.17;;;10.60;99.90;;;;;;4870165;29;20049;-60
2022/09/18 00:09:33;;;;;;;12.05;1.90;;;10.70;99.90;;;;;;4871891;29;20056;-61
2022/09/18 00:11:59;;;;;;;11.98;2.00;;;10.70;99.90;;;;;;4872479;29;20161;-58
2022/09/18 00:14:25;;;;;;;19.58;2.38;;;10.70;99.90;;;;;;4867999;29;20105;-59
2022/09/18 00:16:51;;;;;;;18.77;2.13;;;10.70;99.90;;;;;;4870478;29;20488;-59
2022/09/18 00:19:18;;;;;;;18.27;2.67;;;10.80;99.90;;;;;;4869533;29;20093;-57
2022/09/18 00:21:47;;;;;;;11.23;1.80;;;10.80;99.90;;;;;;4869213;29;20507;-57
2022/09/18 00:24:13;;;;;;;15.50;2.20;;;10.80;99.90;;;;;;4873051;29;20059;-58
2022/09/18 00:26:39;;;;;;;10.10;1.70;;;10.90;99.90;;;;;;4875136;29;20048;-58
2022/09/18 00:29:05;;;;;;;13.10;2.45;;;10.90;99.90;;;;;;4881012;29;20048;-61
2022/09/18 00:31:33;;;;;;;11.13;1.50;;;10.90;99.90;;;;;;4876474;29;20085;-60
2022/09/18 00:34:01;;;;;;;13.45;1.73;;;10.90;99.90;;;;;;4878425;29;20085;-60
2022/09/18 00:36:28;;;;;;;11.02;1.73;;;10.90;99.90;;;;;;4874722;29;20049;-59
2022/09/18 00:38:55;;;;;;;9.93;1.70;;;10.90;99.90;;;;;;4891204;29;20099;-61
2022/09/18 00:41:27;;;;;;;12.07;1.80;;;10.80;99.90;;;;;;4873371;29;20056;-61
2022/09/18 00:44:14;;;;;;;9.67;1.97;;;10.80;99.90;;;;;;4875617;29;20791;-60
2022/09/18 00:46:43;;;;;;;8.35;1.45;;;10.80;99.90;;;;;;4869209;29;20641;-61
2022/09/18 00:49:22;;;;;;;9.27;1.55;;;10.80;99.90;;;;;;4875181;29;20056;-61
2022/09/18 00:51:51;;;;;;;9.05;1.38;;;10.80;99.90;;;;;;4857485;29;20444;-60
2022/09/18 00:54:26;;;;;;;15.15;2.22;;;10.80;99.90;;;;;;4870162;29;20080;-60
2022/09/18 00:56:56;;;;;;;12.20;1.52;;;10.80;99.90;;;;;;4870107;29;21027;-60
2022/09/18 00:59:27;;;;;;;6.38;1.30;;;10.80;99.90;;;;;;4866059;29;20515;-61
2022/09/18 01:01:55;;;;;;;11.05;2.20;;;10.80;99.90;;;;;;4870711;29;20452;-61
2022/09/18 01:04:21;;;;;;;10.38;1.60;;;10.80;99.90;;;;;;4871163;29;20582;-60
2022/09/18 01:06:59;;;;;;;10.80;1.38;;;10.80;99.90;;;;;;4868592;29;20048;-61
2022/09/18 01:09:40;;;;;;;5.25;1.10;;;10.70;99.90;;;;;;4865847;29;20140;-60
2022/09/18 01:12:24;;;;;;;6.78;1.30;;;10.70;99.90;;;;;;4867836;29;20060;-60
2022/09/18 01:15:11;;;;;;;9.02;1.75;;;10.60;99.90;;;;;;4867253;29;20044;-60
2022/09/18 01:17:42;;;;;;;7.97;1.67;;;10.60;99.90;;;;;;4879598;29;20107;-61
2022/09/18 01:20:39;;;;;;;8.98;1.40;;;10.50;99.90;;;;;;4867768;29;20061;-60
2022/09/18 01:23:31;;;;;;;7.28;1.33;;;10.50;99.90;;;;;;4868142;29;20059;-61
2022/09/18 01:26:31;;;;;;;9.90;1.73;;;10.50;99.90;;;;;;4870712;29;20127;-59
2022/09/18 01:29:04;;;;;;;10.32;1.80;;;10.50;99.90;;;;;;4871406;29;20049;-60
2022/09/18 01:31:39;;;;;;;9.90;2.13;;;10.50;99.90;;;;;;4865990;29;20045;-61
2022/09/18 01:34:24;;;;;;;12.50;1.60;;;10.50;99.90;;;;;;4870177;29;20061;-61
2022/09/18 01:36:56;;;;;;;13.40;2.05;;;10.50;99.90;;;;;;4867127;29;20049;-60
2022/09/18 01:39:33;;;;;;;11.27;1.63;;;10.50;99.90;;;;;;4868011;29;22908;-61
2022/09/18 01:42:01;;;;;;;12.90;1.60;;;10.50;99.90;;;;;;4866332;29;20044;-61
2022/09/18 01:44:31;;;;;;;14.93;1.77;;;10.50;99.90;;;;;;4867401;29;20540;-61
2022/09/18 01:46:59;;;;;;;13.65;2.00;;;10.50;99.90;;;;;;4870019;29;20528;-60
2022/09/18 01:49:31;;;;;;;11.95;1.88;;;10.50;99.90;;;;;;4870720;29;20152;-62
2022/09/18 01:52:05;;;;;;;11.67;2.07;;;10.50;99.90;;;;;;4869562;29;20052;-60
2022/09/18 01:54:37;;;;;;;9.10;1.70;;;10.50;99.90;;;;;;4878500;29;20108;-60
2022/09/18 01:57:16;;;;;;;15.00;1.87;;;10.50;99.90;;;;;;4873974;29;20045;-61
2022/09/18 01:59:54;;;;;;;10.38;1.40;;;10.50;99.90;;;;;;4869545;29;20063;-61
2022/09/18 02:02:34;;;;;;;9.25;1.50;;;10.50;99.90;;;;;;4868106;29;20404;-61
2022/09/18 02:05:03;;;;;;;5.68;1.40;;;10.60;99.90;;;;;;4874478;29;20051;-61
2022/09/18 02:07:34;;;;;;;8.63;2.00;;;10.50;99.90;;;;;;4870811;29;20468;-61
2022/09/18 02:10:00;;;;;;;9.93;1.83;;;10.50;99.90;;;;;;4867076;29;20052;-61
2022/09/18 02:12:27;;;;;;;7.95;1.48;;;10.50;99.90;;;;;;4880811;29;20152;-60
2022/09/18 02:14:59;;;;;;;10.13;1.98;;;10.50;99.90;;;;;;4867475;29;20041;-61
2022/09/18 02:17:34;;;;;;;10.30;1.80;;;10.50;99.90;;;;;;4867501;29;20052;-61
2022/09/18 02:20:09;;;;;;;11.70;2.00;;;10.60;99.90;;;;;;4874353;29;20055;-60
2022/09/18 02:22:37;;;;;;;9.13;1.75;;;10.60;99.90;;;;;;4878171;29;20496;-60
2022/09/18 02:25:06;;;;;;;12.48;1.38;;;10.60;99.90;;;;;;4876526;29;20491;-60
2022/09/18 02:27:34;;;;;;;11.73;1.75;;;10.60;99.90;;;;;;4875095;29;20399;-60
2022/09/18 02:30:02;;;;;;;10.73;2.40;;;10.60;99.90;;;;;;4879473;29;20382;-60
2022/09/18 02:32:28;;;;;;;12.95;2.08;;;10.60;99.90;;;;;;4878755;29;20083;-60
2022/09/18 02:34:53;;;;;;;11.82;1.52;;;10.60;99.90;;;;;;4874520;29;20048;-60
2022/09/18 02:37:31;;;;;;;11.95;2.28;;;10.60;99.90;;;;;;4879977;29;20399;-60
2022/09/18 02:40:09;;;;;;;13.27;1.92;;;10.70;99.90;;;;;;4893207;29;20400;-61
2022/09/18 02:42:42;;;;;;;13.82;2.47;;;10.70;99.90;;;;;;4877004;29;20128;-60
2022/09/18 02:45:31;;;;;;;11.02;1.70;;;10.70;99.90;;;;;;4877758;29;20403;-60
2022/09/18 02:48:21;;;;;;;9.75;1.80;;;10.70;99.90;;;;;;4874723;29;20059;-60
2022/09/18 02:51:19;;;;;;;11.45;2.22;;;10.80;99.90;;;;;;4873343;29;20049;-60
2022/09/18 02:53:56;;;;;;;12.70;2.28;;;10.80;99.90;;;;;;4864861;29;20113;-60
2022/09/18 02:56:59;;;;;;;8.02;1.90;;;10.80;99.90;;;;;;4866652;29;20056;-60
2022/09/18 02:59:46;;;;;;;15.75;2.25;;;10.80;99.90;;;;;;4837041;29;20077;-60
2022/09/18 03:02:12;;;;;;;9.38;1.95;;;10.80;99.90;;;;;;4864184;29;20040;-59
2022/09/18 03:04:38;;;;;;;11.73;2.30;;;10.80;99.90;;;;;;4867236;29;20049;-59
2022/09/18 03:07:04;;;;;;;9.35;1.85;;;10.80;99.90;;;;;;4870035;29;21911;-60
2022/09/18 03:09:31;;;;;;;13.15;2.00;;;10.80;99.90;;;;;;4867217;29;20111;-60
2022/09/18 03:11:57;;;;;;;18.60;2.60;;;10.90;99.90;;;;;;4869778;29;20059;-60
2022/09/18 03:14:23;;;;;;;10.27;1.95;;;10.90;99.90;;;;;;4865423;29;20044;-59
2022/09/18 03:16:48;;;;;;;13.25;1.70;;;10.90;99.90;;;;;;4868320;29;20044;-59
2022/09/18 03:19:14;;;;;;;8.70;1.70;;;10.90;99.90;;;;;;4865914;29;20163;-59
2022/09/18 03:21:40;;;;;;;14.63;1.85;;;10.90;99.90;;;;;;4867973;29;20111;-59
2022/09/18 03:24:06;;;;;;;9.82;2.10;;;10.80;99.90;;;;;;4869562;29;20045;-59
2022/09/18 03:26:32;;;;;;;12.25;2.10;;;10.80;99.90;;;;;;4866272;29;20733;-59
2022/09/18 03:28:58;;;;;;;7.30;1.40;;;10.90;99.90;;;;;;4866585;29;20056;-60
2022/09/18 03:31:23;;;;;;;7.95;1.77;;;10.80;99.90;;;;;;4866765;29;20245;-59
2022/09/18 03:33:49;;;;;;;9.25;1.98;;;10.90;99.90;;;;;;4865936;29;20052;-59
2022/09/18 03:36:15;;;;;;;9.05;1.65;;;10.90;99.90;;;;;;4860710;29;20070;-60
2022/09/18 03:38:41;;;;;;;11.27;1.60;;;10.90;99.90;;;;;;4868745;29;20057;-60
2022/09/18 03:41:07;;;;;;;10.23;1.55;;;10.80;99.90;;;;;;4868311;29;20507;-60
2022/09/18 03:43:33;;;;;;;9.25;1.48;;;10.80;99.90;;;;;;4866412;29;20131;-59
2022/09/18 03:46:00;;;;;;;10.05;1.55;;;10.80;99.90;;;;;;4865753;29;20072;-59
2022/09/18 03:48:27;;;;;;;9.60;1.55;;;10.80;99.90;;;;;;4866447;29;20054;-60
2022/09/18 03:50:53;;;;;;;7.00;1.60;;;10.80;99.90;;;;;;4868769;29;20057;-60
2022/09/18 03:53:18;;;;;;;10.27;1.50;;;10.80;99.90;;;;;;4868911;29;20129;-60
2022/09/18 03:55:45;;;;;;;6.72;1.30;;;10.80;99.90;;;;;;4874814;29;20082;-61
2022/09/18 03:58:11;;;;;;;12.13;1.83;;;10.70;99.90;;;;;;4874909;29;20137;-60
2022/09/18 04:00:37;;;;;;;7.57;1.85;;;10.70;99.90;;;;;;4867348;29;20044;-60
2022/09/18 04:03:03;;;;;;;7.70;1.30;;;10.70;99.90;;;;;;4865541;29;20107;-60
2022/09/18 04:05:29;;;;;;;10.80;1.70;;;10.70;99.90;;;;;;4865130;29;20107;-60
2022/09/18 04:07:55;;;;;;;10.90;1.52;;;10.70;99.90;;;;;;4868073;29;20052;-60
2022/09/18 04:10:21;;;;;;;8.15;1.50;;;10.70;99.90;;;;;;4864842;29;20057;-60
2022/09/18 04:12:47;;;;;;;14.43;1.83;;;10.70;99.90;;;;;;4865224;29;20045;-59
2022/09/18 04:15:14;;;;;;;10.05;1.50;;;10.70;99.90;;;;;;4866413;29;20056;-61
2022/09/18 04:17:41;;;;;;;8.52;1.77;;;10.70;99.90;;;;;;4869594;29;20084;-61
2022/09/18 04:20:08;;;;;;;9.57;1.45;;;10.70;99.90;;;;;;4867718;29;20045;-59
2022/09/18 04:22:34;;;;;;;10.27;1.65;;;10.70;99.90;;;;;;4867645;29;20033;-60
2022/09/18 04:25:04;;;;;;;8.35;1.50;;;10.70;99.90;;;;;;4870031;29;20045;-59
2022/09/18 04:27:29;;;;;;;12.68;1.67;;;10.70;99.90;;;;;;4876842;29;20072;-60
2022/09/18 04:29:55;;;;;;;12.95;1.50;;;10.70;99.90;;;;;;4875376;29;20041;-61
2022/09/18 04:32:21;;;;;;;8.38;1.20;;;10.70;99.90;;;;;;4875439;29;20036;-61
2022/09/18 04:34:47;;;;;;;10.07;1.67;;;10.70;99.90;;;;;;4875109;29;20045;-61
2022/09/18 04:37:12;;;;;;;5.43;1.20;;;10.70;99.90;;;;;;4875433;29;20040;-61
2022/09/18 04:39:39;;;;;;;7.95;1.50;;;10.70;99.90;;;;;;4878345;29;20140;-61
2022/09/18 04:42:05;;;;;;;6.50;1.50;;;10.70;99.90;;;;;;4877187;29;20049;-61
2022/09/18 04:44:30;;;;;;;12.13;1.40;;;10.70;99.90;;;;;;4877705;29;20056;-61
2022/09/18 04:46:56;;;;;;;9.63;1.42;;;10.80;99.90;;;;;;4882302;29;20051;-60
2022/09/18 04:49:22;;;;;;;10.75;1.60;;;10.70;99.90;;;;;;4877190;29;20044;-61
2022/09/18 04:51:48;;;;;;;8.38;1.52;;;10.70;99.90;;;;;;4880949;29;20049;-60
2022/09/18 04:54:14;;;;;;;8.05;1.23;;;10.70;99.90;;;;;;4874741;29;20134;-61
2022/09/18 04:56:40;;;;;;;10.52;1.77;;;10.70;99.90;;;;;;4868551;29;20048;-61
2022/09/18 04:59:06;;;;;;;9.13;1.88;;;10.70;99.90;;;;;;4871552;29;20052;-61
2022/09/18 05:01:33;;;;;;;7.63;1.33;;;10.70;99.90;;;;;;4867945;29;20506;-61
2022/09/18 05:03:59;;;;;;;8.07;1.27;;;10.80;99.90;;;;;;4868848;29;20062;-60
2022/09/18 05:06:25;;;;;;;13.13;1.65;;;10.70;99.90;;;;;;4867553;29;20483;-60
2022/09/18 05:08:50;;;;;;;6.80;1.38;;;10.80;99.90;;;;;;4869571;29;20440;-61
2022/09/18 05:11:17;;;;;;;11.18;1.73;;;10.80;99.90;;;;;;4867334;29;20059;-61
2022/09/18 05:13:42;;;;;;;6.70;1.52;;;10.80;99.90;;;;;;4872965;29;20408;-60
2022/09/18 05:16:09;;;;;;;6.75;1.40;;;10.80;99.90;;;;;;4880857;29;20045;-60
2022/09/18 05:18:34;;;;;;;11.30;1.40;;;10.80;99.90;;;;;;4882416;29;20598;-59
2022/09/18 05:21:01;;;;;;;7.38;1.15;;;10.80;99.90;;;;;;4875830;29;20192;-60
2022/09/18 05:23:27;;;;;;;8.15;1.33;;;10.80;99.90;;;;;;4870375;29;20137;-60
2022/09/18 05:25:53;;;;;;;6.38;1.48;;;10.80;99.90;;;;;;4868801;29;20059;-61
2022/09/18 05:28:19;;;;;;;8.98;1.60;;;10.80;99.90;;;;;;4868207;29;20044;-60
2022/09/18 05:30:45;;;;;;;6.20;1.02;;;10.80;99.90;;;;;;4871354;29;20048;-60
2022/09/18 05:33:11;;;;;;;4.40;1.10;;;10.80;99.90;;;;;;4869647;29;20063;-59
2022/09/18 05:35:38;;;;;;;6.43;1.13;;;10.80;99.90;;;;;;4869202;29;20081;-60
2022/09/18 05:38:05;;;;;;;4.75;1.50;;;10.80;99.90;;;;;;4869756;29;20144;-60
2022/09/18 05:40:33;;;;;;;6.15;1.30;;;10.80;99.90;;;;;;4865186;29;20740;-60
2022/09/18 05:43:00;;;;;;;7.50;1.33;;;10.80;99.90;;;;;;4848767;29;20041;-60
2022/09/18 05:45:25;;;;;;;7.85;1.27;;;10.80;99.90;;;;;;4869766;29;20057;-60
2022/09/18 05:47:57;;;;;;;9.00;1.58;;;10.80;99.90;;;;;;4869932;29;20132;-61
2022/09/18 05:50:25;;;;;;;5.20;1.15;;;10.70;99.90;;;;;;4867971;29;20524;-60
2022/09/18 05:52:58;;;;;;;10.45;1.42;;;10.70;99.90;;;;;;4871020;29;20079;-60
2022/09/18 05:55:24;;;;;;;7.78;1.27;;;10.70;99.90;;;;;;4869085;29;20064;-60
2022/09/18 05:57:57;;;;;;;10.30;1.65;;;10.70;99.90;;;;;;4866829;29;20491;-60
2022/09/18 06:00:25;;;;;;;8.05;1.73;;;10.80;99.90;;;;;;4869012;29;20044;-59
2022/09/18 06:02:56;;;;;;;10.43;1.42;;;10.70;99.90;;;;;;4865451;29;20245;-59
2022/09/18 06:05:23;;;;;;;9.98;1.98;;;10.80;99.90;;;;;;4868504;29;20037;-60
2022/09/18 06:07:50;;;;;;;7.95;1.58;;;10.80;99.90;;;;;;4881924;29;20089;-60
2022/09/18 06:10:17;;;;;;;9.80;1.77;;;10.80;99.90;;;;;;4877967;29;20065;-61
2022/09/18 06:12:43;;;;;;;10.80;2.20;;;10.90;99.90;;;;;;4880724;29;20083;-60
2022/09/18 06:15:10;;;;;;;14.52;2.35;;;10.80;99.90;;;;;;4876711;29;20085;-60
2022/09/18 06:17:36;;;;;;;10.52;1.80;;;10.80;99.90;;;;;;4876528;29;20058;-59
2022/09/18 06:20:04;;;;;;;9.68;2.17;;;10.80;99.90;;;;;;4879409;29;20136;-61
2022/09/18 06:22:31;;;;;;;10.68;1.80;;;10.80;99.90;;;;;;4875685;29;20049;-60
2022/09/18 06:24:57;;;;;;;15.20;2.25;;;10.90;99.90;;;;;;4877696;29;20072;-60
2022/09/18 06:27:23;;;;;;;15.80;2.42;;;10.90;99.90;;;;;;4878061;29;20111;-61
2022/09/18 06:29:49;;;;;;;11.13;1.85;;;10.90;99.90;;;;;;4880136;29;20060;-61
2022/09/18 06:32:15;;;;;;;10.88;1.67;;;10.90;99.90;;;;;;4879508;29;20093;-61
2022/09/18 06:34:41;;;;;;;10.73;1.77;;;11.00;99.90;;;;;;4878501;29;20056;-60
2022/09/18 06:37:10;;;;;;;8.75;1.48;;;11.00;99.90;;;;;;4879630;29;20048;-61
2022/09/18 06:39:36;;;;;;;11.48;1.48;;;11.00;99.90;;;;;;4878900;29;20184;-59
2022/09/18 06:42:02;;;;;;;8.32;1.40;;;11.00;99.90;;;;;;4876015;29;20127;-60
2022/09/18 06:44:27;;;;;;;5.40;1.17;;;11.00;99.90;;;;;;4878308;29;20111;-60
2022/09/18 06:46:53;;;;;;;4.75;1.13;;;11.00;99.90;;;;;;4879123;29;20472;-60
2022/09/18 06:49:19;;;;;;;8.18;1.55;;;11.10;99.90;;;;;;4879046;29;20100;-61
2022/09/18 06:51:47;;;;;;;7.90;1.33;;;11.10;99.90;;;;;;4887133;29;20148;-60
2022/09/18 06:54:13;;;;;;;9.18;1.50;;;11.10;99.90;;;;;;4883851;29;20163;-60
2022/09/18 06:56:40;;;;;;;13.60;1.30;;;11.20;99.90;;;;;;4880939;29;20112;-61
2022/09/18 06:59:06;;;;;;;10.68;1.30;;;11.20;99.90;;;;;;4878247;29;20496;-60
2022/09/18 07:01:32;;;;;;;7.60;1.67;;;11.20;99.90;;;;;;4875745;29;20104;-59
2022/09/18 07:03:58;;;;;;;9.40;1.60;;;11.30;99.90;;;;;;4875816;29;20147;-60
2022/09/18 07:06:25;;;;;;;8.43;1.58;;;11.30;99.90;;;;;;4879374;29;20053;-61
2022/09/18 07:08:51;;;;;;;13.02;1.58;;;11.30;99.90;;;;;;4875666;29;20068;-60
2022/09/18 07:11:16;;;;;;;9.13;1.35;;;11.30;99.90;;;;;;4877234;29;20575;-60
2022/09/18 07:13:42;;;;;;;11.18;1.27;;;11.30;99.90;;;;;;4876823;29;20049;-60
2022/09/18 07:16:08;;;;;;;13.30;1.25;;;11.30;99.90;;;;;;4876570;29;20048;-60
2022/09/18 07:18:34;;;;;;;6.07;1.70;;;11.40;99.90;;;;;;4876307;29;20072;-60
2022/09/18 07:21:00;;;;;;;7.90;1.40;;;11.40;99.90;;;;;;4876979;29;20494;-62
2022/09/18 07:23:28;;;;;;;6.05;0.88;;;11.40;99.90;;;;;;4875078;29;20048;-60
2022/09/18 07:25:54;;;;;;;14.13;1.38;;;11.50;99.90;;;;;;4876847;29;20511;-61
2022/09/18 07:28:20;;;;;;;6.13;1.02;;;11.50;99.90;;;;;;4874686;29;20068;-60
2022/09/18 07:30:46;;;;;;;7.72;1.75;;;11.50;99.90;;;;;;4877238;29;20060;-60
2022/09/18 07:33:12;;;;;;;8.73;1.23;;;11.50;99.90;;;;;;4877474;29;20104;-60
2022/09/18 07:35:38;;;;;;;8.85;1.50;;;11.50;99.90;;;;;;4873648;29;20053;-60
2022/09/18 07:38:05;;;;;;;5.45;1.20;;;11.50;99.90;;;;;;4879010;29;20131;-60
2022/09/18 07:40:31;;;;;;;10.15;1.55;;;11.50;99.90;;;;;;4876369;29;20057;-60
2022/09/18 07:43:03;;;;;;;7.78;1.30;;;11.50;99.90;;;;;;4874203;29;20112;-59
2022/09/18 07:45:29;;;;;;;5.70;1.08;;;11.50;99.90;;;;;;4873109;29;20044;-60
2022/09/18 07:47:55;;;;;;;9.35;1.25;;;11.50;99.90;;;;;;4873918;29;20055;-59
2022/09/18 07:50:21;;;;;;;7.68;1.35;;;11.50;99.90;;;;;;4879295;29;20427;-60
2022/09/18 07:52:53;;;;;;;5.68;1.50;;;11.40;99.90;;;;;;4881104;29;20767;-60
2022/09/18 07:55:20;;;;;;;6.53;1.50;;;11.50;99.90;;;;;;4881641;29;20053;-60
2022/09/18 07:57:47;;;;;;;7.43;1.38;;;11.40;99.90;;;;;;4877876;29;20056;-59
2022/09/18 08:00:14;;;;;;;5.30;1.30;;;11.40;99.90;;;;;;4880671;29;20613;-60
2022/09/18 08:02:40;;;;;;;9.25;1.50;;;11.50;99.90;;;;;;4864031;29;20037;-59
2022/09/18 08:05:07;;;;;;;6.85;1.40;;;11.50;99.90;;;;;;4880577;29;20076;-60
2022/09/18 08:07:33;;;;;;;7.30;1.73;;;11.50;99.90;;;;;;4876511;29;20136;-60
2022/09/18 08:09:59;;;;;;;8.13;1.38;;;11.50;99.90;;;;;;4877590;29;20048;-60
2022/09/18 08:12:24;;;;;;;7.40;1.42;;;11.50;99.90;;;;;;4873893;29;20088;-59
2022/09/18 08:14:50;;;;;;;10.15;1.77;;;11.50;99.90;;;;;;4876710;29;20048;-60
2022/09/18 08:17:16;;;;;;;4.95;1.50;;;11.50;99.90;;;;;;4875587;29;20041;-60
2022/09/18 08:19:42;;;;;;;6.82;1.30;;;11.50;99.90;;;;;;4877503;29;20108;-60
2022/09/18 08:22:08;;;;;;;9.48;1.45;;;11.50;99.90;;;;;;4880121;29;20096;-60
2022/09/18 08:24:33;;;;;;;8.50;1.60;;;11.50;99.90;;;;;;4887448;29;20045;-59
2022/09/18 08:27:02;;;;;;;11.95;1.80;;;11.50;99.90;;;;;;4882514;29;20414;-60
2022/09/18 08:29:31;;;;;;;7.25;1.60;;;11.50;99.90;;;;;;4882643;29;20064;-60
2022/09/18 08:31:56;;;;;;;7.30;1.33;;;11.50;99.90;;;;;;4882979;29;20060;-60
2022/09/18 08:34:22;;;;;;;7.60;1.20;;;11.50;99.90;;;;;;4899642;29;20036;-60
2022/09/18 08:36:48;;;;;;;5.95;1.30;;;11.50;99.90;;;;;;4886490;29;20049;-60
2022/09/18 08:39:14;;;;;;;6.53;1.10;;;11.50;99.90;;;;;;4886665;29;20041;-60
2022/09/18 08:42:17;;;;;;;6.70;0.90;;;11.50;99.90;;;;;;4897883;29;20060;-60
2022/09/18 08:44:51;;;;;;;7.80;1.40;;;11.40;99.90;;;;;;4885611;29;20041;-60
2022/09/18 08:47:41;;;;;;;7.32;1.40;;;11.40;99.90;;;;;;4885810;29;20052;-60
2022/09/18 08:50:18;;;;;;;6.15;1.50;;;11.50;99.90;;;;;;4882678;29;20117;-59
2022/09/18 08:52:51;;;;;;;5.68;1.30;;;11.50;99.90;;;;;;4882345;29;20048;-60
2022/09/18 08:55:26;;;;;;;6.93;1.60;;;11.50;99.90;;;;;;4883628;29;20064;-60
2022/09/18 08:57:55;;;;;;;9.93;1.58;;;11.50;99.90;;;;;;4877520;29;20172;-59
2022/09/18 09:00:33;;;;;;;8.05;1.40;;;11.50;99.90;;;;;;4869698;29;20036;-60
2022/09/18 09:03:08;;;;;;;9.60;1.45;;;11.50;99.90;;;;;;4886027;29;20045;-59
2022/09/18 09:05:45;;;;;;;8.93;1.67;;;11.50;99.90;;;;;;4881620;29;20120;-59
2022/09/18 09:08:32;;;;;;;10.65;1.90;;;11.40;99.90;;;;;;4880349;29;20064;-60
2022/09/18 09:10:58;;;;;;;9.35;1.73;;;11.40;99.90;;;;;;4879948;29;20044;-60
2022/09/18 09:13:24;;;;;;;7.47;2.00;;;11.40;99.90;;;;;;4882945;29;20056;-59
2022/09/18 09:16:04;;;;;;;9.05;1.58;;;11.30;99.90;;;;;;4881001;29;21515;-60
2022/09/18 09:18:58;;;;;;;12.82;1.63;;;11.30;99.90;;;;;;4894381;29;20040;-60
2022/09/18 09:21:51;;;;;;;8.10;1.42;;;11.30;99.90;;;;;;4881422;29;20041;-60
2022/09/18 09:24:31;;;;;;;10.27;1.88;;;11.30;99.90;;;;;;4878147;29;20044;-59
2022/09/18 09:27:01;;;;;;;8.32;1.70;;;11.30;99.90;;;;;;4878876;29;20515;-60
2022/09/18 09:29:36;;;;;;;10.50;2.25;;;11.30;99.90;;;;;;4877251;29;20045;-60
2022/09/18 09:32:24;;;;;;;13.73;1.77;;;11.30;99.90;;;;;;4880411;29;20054;-59
2022/09/18 09:35:43;;;;;;;9.00;1.55;;;11.40;99.90;;;;;;4876627;29;20053;-60
2022/09/18 09:38:31;;;;;;;10.05;1.83;;;11.40;99.90;;;;;;4867045;29;20083;-60
2022/09/18 09:41:06;;;;;;;11.63;1.67;;;11.50;99.90;;;;;;4868927;29;20053;-60
2022/09/18 09:43:46;;;;;;;7.07;1.83;;;11.50;99.90;;;;;;4874033;29;20147;-60
2022/09/18 09:46:42;;;;;;;10.75;1.55;;;11.50;99.90;;;;;;4891392;29;20106;-60
2022/09/18 09:49:16;;;;;;;11.27;2.00;;;11.50;99.90;;;;;;4880753;29;20056;-59
2022/09/18 09:52:19;;;;;;;7.07;2.20;;;11.60;99.90;;;;;;4876178;29;20045;-60
2022/09/18 09:54:45;;;;;;;8.05;1.77;;;11.60;99.90;;;;;;4879068;29;20400;-60
2022/09/18 09:57:35;;;;;;;7.53;1.60;;;11.60;99.90;;;;;;4877741;29;20056;-59
2022/09/18 10:00:22;;;;;;;9.77;1.63;;;11.70;99.90;;;;;;4878928;29;20605;-60
2022/09/18 10:03:03;;;;;;;8.57;1.40;;;11.70;99.90;;;;;;4876092;29;20128;-59
2022/09/18 10:06:04;;;;;;;15.73;2.10;;;11.70;99.90;;;;;;4876827;29;20049;-61
2022/09/18 10:08:44;;;;;;;7.22;1.77;;;11.80;99.90;;;;;;4877629;29;20060;-60
2022/09/18 10:11:12;;;;;;;6.13;1.90;;;11.80;99.90;;;;;;4880247;29;20511;-60
2022/09/18 10:13:43;;;;;;;12.30;1.70;;;11.90;99.90;;;;;;4875533;29;20089;-60
2022/09/18 10:16:15;;;;;;;9.83;1.67;;;11.90;99.90;;;;;;4875072;29;20084;-60
2022/09/18 10:18:44;;;;;;;9.60;2.27;;;12.00;99.90;;;;;;4871067;29;20051;-58
2022/09/18 10:21:16;;;;;;;13.30;1.60;;;12.00;99.90;;;;;;4880544;29;20052;-56
2022/09/18 10:23:49;;;;;;;10.18;1.77;;;12.00;99.90;;;;;;4876233;29;20045;-53
2022/09/18 10:26:18;;;;;;;;;;;12.00;99.90;;;;;;4876912;29;20135;-55
2022/09/18 10:28:44;;;;;;;15.05;1.83;;;12.10;99.90;;;;;;4879788;29;19930;-57
2022/09/18 10:31:12;;;;;;;8.73;1.65;;;12.20;99.90;;;;;;4880677;29;20479;-55
2022/09/18 10:33:41;;;;;;;10.63;1.50;;;12.20;99.90;;;;;;4881385;29;20487;-57
2022/09/18 10:36:20;;;;;;;13.30;2.20;;;12.20;99.90;;;;;;4881695;29;20472;-56
2022/09/18 10:38:46;;;;;;;11.40;2.13;;;12.20;99.90;;;;;;4884983;29;20063;-56
2022/09/18 10:41:24;;;;;;;9.70;1.48;;;12.30;99.90;;;;;;4881554;29;20504;-57
2022/09/18 10:44:29;;;;;;;8.90;1.45;;;12.30;99.90;;;;;;4879537;29;20041;-56
2022/09/18 10:47:04;;;;;;;5.63;1.40;;;12.30;99.90;;;;;;4878027;29;20076;-57
2022/09/18 10:49:48;;;;;;;9.82;1.40;;;12.40;99.90;;;;;;4878884;29;20049;-57
2022/09/18 10:52:25;;;;;;;8.13;1.35;;;12.50;99.90;;;;;;4886010;29;20115;-56
2022/09/18 10:55:19;;;;;;;11.95;2.10;;;12.60;99.90;;;;;;4883292;29;20428;-57
2022/09/18 10:58:12;;;;;;;9.07;1.30;;;12.70;99.90;;;;;;4878687;29;20053;-55
2022/09/18 11:00:59;;;;;;;8.77;1.65;;;12.70;99.90;;;;;;4879982;29;20472;-57
2022/09/18 11:03:31;;;;;;;10.82;1.75;;;12.90;99.90;;;;;;4880341;29;20105;-55
2022/09/18 11:05:59;;;;;;;9.93;1.38;;;13.00;99.90;;;;;;4881513;29;20052;-55
2022/09/18 11:08:30;;;;;;;9.02;1.80;;;13.10;99.90;;;;;;4876838;29;20065;-56
2022/09/18 11:11:29;;;;;;;13.13;1.60;;;13.10;99.90;;;;;;4880108;29;20164;-57
2022/09/18 11:14:05;;;;;;;7.32;1.33;;;13.30;99.90;;;;;;4877176;29;20072;-57
2022/09/18 11:16:37;;;;;;;6.68;1.48;;;13.30;99.90;;;;;;4879026;29;20132;-55
2022/09/18 11:19:22;;;;;;;6.97;1.42;;;13.40;99.90;;;;;;4881393;29;20044;-57
2022/09/18 11:21:51;;;;;;;12.90;1.40;;;13.40;99.90;;;;;;4881865;29;20049;-57
2022/09/18 11:24:26;;;;;;;6.90;1.13;;;13.50;99.90;;;;;;4880198;29;20052;-55
2022/09/18 11:26:57;;;;;;;6.10;1.73;;;13.50;99.90;;;;;;4881705;29;20060;-57
2022/09/18 11:29:38;;;;;;;6.93;1.60;;;13.60;99.90;;;;;;4878567;29;20471;-58
2022/09/18 11:32:18;;;;;;;6.75;1.40;;;13.60;99.90;;;;;;4877166;29;20072;-57
2022/09/18 11:34:53;;;;;;;11.35;2.17;;;13.70;99.90;;;;;;4882187;29;20091;-56
2022/09/18 11:37:36;;;;;;;12.52;1.45;;;13.70;99.90;;;;;;4880841;29;20135;-57
2022/09/18 11:40:07;;;;;;;8.65;1.52;;;13.80;99.90;;;;;;4878284;29;20045;-58
2022/09/18 11:42:40;;;;;;;13.05;1.60;;;13.90;99.90;;;;;;4877409;29;20523;-57
2022/09/18 11:45:19;;;;;;;4.97;1.00;;;13.90;99.90;;;;;;4881780;29;20104;-56
2022/09/18 11:47:54;;;;;;;16.60;1.90;;;14.00;99.90;;;;;;4895469;29;20393;-57
2022/09/18 11:50:24;;;;;;;8.95;1.70;;;14.00;99.90;;;;;;4877866;29;20064;-56
2022/09/18 11:52:59;;;;;;;11.43;1.35;;;14.00;99.90;;;;;;4882693;29;20253;-57
2022/09/18 11:55:28;;;;;;;11.88;1.50;;;14.00;99.90;;;;;;4883158;29;20037;-57
2022/09/18 11:58:15;;;;;;;9.50;1.33;;;14.00;99.90;;;;;;4883864;29;20127;-57
2022/09/18 12:00:51;;;;;;;6.88;1.52;;;14.00;99.90;;;;;;4882573;29;20052;-56
2022/09/18 12:03:33;;;;;;;10.43;1.65;;;14.00;99.90;;;;;;4884094;29;20045;-56
2022/09/18 12:06:27;;;;;;;10.68;1.60;;;13.90;99.90;;;;;;4881482;29;20045;-57
2022/09/18 12:09:17;;;;;;;8.10;1.40;;;13.80;99.90;;;;;;4885159;29;20069;-56
2022/09/18 12:12:16;;;;;;;10.48;1.55;;;13.80;99.90;;;;;;4878334;29;20066;-55
2022/09/18 12:14:50;;;;;;;8.77;1.70;;;13.80;99.90;;;;;;4890336;29;20052;-57
2022/09/18 12:17:37;;;;;;;6.63;1.30;;;13.90;99.90;;;;;;4879181;29;20063;-57
2022/09/18 12:20:18;;;;;;;8.35;1.38;;;14.00;99.90;;;;;;4881086;29;20132;-53
2022/09/18 12:22:55;;;;;;;9.80;1.30;;;14.00;99.90;;;;;;4885990;29;20047;-57
2022/09/18 12:25:38;;;;;;;10.90;1.60;;;14.10;99.90;;;;;;4881817;29;20048;-58
2022/09/18 12:28:16;;;;;;;;;;;14.20;99.90;;;;;;4880730;29;20048;-55
2022/09/18 12:31:12;;;;;;;8.25;1.38;;;14.20;99.90;;;;;;4878972;29;19930;-57
2022/09/18 12:34:04;;;;;;;19.10;1.77;;;14.20;99.90;;;;;;4882118;29;20057;-57
2022/09/18 12:36:46;;;;;;;9.35;1.40;;;14.30;99.90;;;;;;4866481;29;20143;-57
2022/09/18 12:39:30;;;;;;;5.22;1.10;;;14.20;99.90;;;;;;4883926;29;20497;-57
2022/09/18 12:42:28;;;;;;;4.55;1.17;;;14.20;99.90;;;;;;4882366;29;20049;-57
2022/09/18 12:45:28;;;;;;;4.85;0.90;;;14.10;99.60;;;;;;4882297;29;20080;-56
2022/09/18 12:48:09;;;;;;;4.00;0.80;;;14.00;99.40;;;;;;4878423;29;20535;-57
2022/09/18 12:50:56;;;;;;;4.95;1.00;;;14.00;99.00;;;;;;4884098;29;20158;-57
2022/09/18 12:53:41;;;;;;;10.25;1.38;;;14.10;99.00;;;;;;4881293;29;20092;-58
2022/09/18 12:56:29;;;;;;;8.27;1.42;;;14.10;99.00;;;;;;4884415;29;20047;-57
2022/09/18 12:59:23;;;;;;;5.32;1.10;;;14.20;99.30;;;;;;4881429;29;20609;-57
2022/09/18 13:02:03;;;;;;;7.53;1.77;;;14.20;99.30;;;;;;4880254;29;20049;-57
2022/09/18 13:04:51;;;;;;;7.25;1.40;;;14.30;99.60;;;;;;4880823;29;20040;-57
2022/09/18 13:07:28;;;;;;;15.50;1.60;;;14.40;99.70;;;;;;4839280;29;1148884;-57
2022/09/18 13:10:10;;;;;;;10.27;1.80;;;14.40;99.90;;;;;;4881038;29;20503;-56
2022/09/18 13:13:03;;;;;;;9.57;1.48;;;14.50;99.90;;;;;;4893990;29;20120;-56